Terminal Aerodrome Forecast
Issued by NWS

Home | Current Version | Previous Version | Graphics & Text | Print | Product List | Glossary On
Versions: 1 2 3 4 5 6 7 8 9 10 11 12 13 14 15 16 17 18 19 20 21 22 23 24 25 26 27 28 29 30 31 32 33 34 35 36 37 38 39 40 41 42 43 44 45 46 47 48 49 50
000
FTUS43 KLOT 242300
TAFGYY
TAF
KGYY 242335Z 2500/2524 26005KT P6SM BKN120
      TEMPO 2500/2501 BKN020
     FM250700 05006KT P6SM OVC009
      TEMPO 2511/2512 3SM -SN
     FM251300 04012G16KT 2SM -SN BR OVC009
     FM251500 04020G30KT 1 1/2SM -SN BR OVC008
      TEMPO 2515/2518 3/4SM -SN BR VV005
     FM251900 04020G30KT 3SM -SN BLSN OVC012
     FM252100 03018G30KT 6SM -SHSN OVC018=

USA.gov is the U.S. government's official web portal to all federal, state and local government web resources and services.